createdAt,value
2018-03-28T00:01:59.934Z,75.00
2018-03-28T00:04:28.422Z,75.09
2018-03-28T00:06:56.742Z,74.99
2018-03-28T00:09:25.086Z,74.96
2018-03-28T00:11:53.409Z,74.85
2018-03-28T00:14:21.827Z,74.89
2018-03-28T00:16:50.142Z,74.95
2018-03-28T00:19:18.489Z,74.95
2018-03-28T00:21:46.873Z,75.31
2018-03-28T00:24:15.147Z,75.21
2018-03-28T00:26:45.537Z,75.16
2018-03-28T00:29:13.958Z,75.03
2018-03-28T00:31:42.277Z,74.80
2018-03-28T00:34:10.625Z,74.86
2018-03-28T00:36:38.955Z,74.84
2018-03-28T00:39:07.304Z,74.68
2018-03-28T00:41:35.622Z,74.57
2018-03-28T00:44:03.962Z,74.64
2018-03-28T00:46:32.283Z,74.54
2018-03-28T00:49:00.627Z,74.56
2018-03-28T00:51:36.750Z,74.73
2018-03-28T00:54:05.096Z,75.21
2018-03-28T00:56:33.487Z,74.89
2018-03-28T00:59:01.831Z,74.68
2018-03-28T01:01:30.158Z,74.87
2018-03-28T01:03:58.497Z,74.88
2018-03-28T01:06:26.818Z,74.76
2018-03-28T01:08:55.162Z,75.00
2018-03-28T01:11:23.481Z,75.09
2018-03-28T01:13:51.821Z,74.92
2018-03-28T01:16:20.158Z,75.10
2018-03-28T01:18:48.462Z,74.92
2018-03-28T01:21:16.807Z,75.10
2018-03-28T01:23:45.121Z,74.88
2018-03-28T01:26:13.461Z,74.67
2018-03-28T01:28:41.775Z,74.72
2018-03-28T01:31:10.122Z,74.51
2018-03-28T01:33:38.442Z,74.57
2018-03-28T01:36:06.782Z,74.39
2018-03-28T01:38:35.144Z,73.99
2018-03-28T01:41:03.466Z,73.98
2018-03-28T01:43:31.790Z,71.15
2018-03-28T01:46:00.139Z,72.38
2018-03-28T01:48:28.462Z,72.91
2018-03-28T01:50:56.813Z,73.10
2018-03-28T01:53:25.139Z,73.14
2018-03-28T01:55:53.490Z,73.20
2018-03-28T01:58:21.813Z,73.21
2018-03-28T02:00:50.162Z,72.93
2018-03-28T02:03:18.485Z,72.85
2018-03-28T02:05:46.833Z,72.99
2018-03-28T02:08:15.161Z,73.04
2018-03-28T02:10:43.515Z,72.80
2018-03-28T02:13:11.842Z,72.57
2018-03-28T02:15:40.194Z,72.81
2018-03-28T02:18:08.523Z,72.91
2018-03-28T02:20:36.875Z,72.73
2018-03-28T02:23:05.198Z,72.48
2018-03-28T02:25:33.559Z,72.29
2018-03-28T02:28:01.892Z,72.54
2018-03-28T02:30:30.239Z,73.45
2018-03-28T02:32:58.562Z,74.15
2018-03-28T02:35:26.902Z,74.66
2018-03-28T02:37:55.222Z,74.75
2018-03-28T02:40:23.571Z,74.45
2018-03-28T02:42:51.900Z,74.28
2018-03-28T02:45:20.229Z,74.24
2018-03-28T02:47:48.550Z,73.96
2018-03-28T02:50:16.895Z,73.94
2018-03-28T02:52:45.214Z,74.01
2018-03-28T02:55:13.559Z,74.14
2018-03-28T02:57:41.885Z,74.16
2018-03-28T03:00:10.230Z,74.18
2018-03-28T03:02:38.550Z,74.30
2018-03-28T03:05:06.898Z,74.24
2018-03-28T03:07:35.214Z,74.55
2018-03-28T03:10:03.550Z,74.36
2018-03-28T03:12:31.890Z,74.75
2018-03-28T03:15:00.226Z,75.22
2018-03-28T03:17:28.565Z,75.85
2018-03-28T03:19:56.888Z,75.75
2018-03-28T03:22:25.231Z,75.79
2018-03-28T03:24:53.551Z,75.59
2018-03-28T03:27:21.889Z,75.36
2018-03-28T03:29:50.210Z,75.37
2018-03-28T03:32:18.554Z,75.66
2018-03-28T03:34:46.878Z,75.88
2018-03-28T03:37:15.218Z,76.46
2018-03-28T03:39:43.538Z,76.10
2018-03-28T03:42:11.874Z,76.36
2018-03-28T03:44:40.198Z,75.98
2018-03-28T03:47:08.545Z,75.91
2018-03-28T03:49:36.867Z,76.07
2018-03-28T03:52:05.214Z,76.53
2018-03-28T03:54:33.529Z,76.28
2018-03-28T03:57:01.880Z,76.21
2018-03-28T03:59:30.198Z,76.11
2018-03-28T04:01:58.542Z,76.57
2018-03-28T04:04:26.865Z,76.96
2018-03-28T04:06:55.218Z,76.76
2018-03-28T04:09:23.536Z,76.61
2018-03-28T04:11:51.880Z,76.90
2018-03-28T04:14:20.202Z,77.37
2018-03-28T04:16:48.542Z,77.36
2018-03-28T04:19:16.862Z,77.39
2018-03-28T04:21:45.202Z,77.21
2018-03-28T04:24:13.522Z,77.20
2018-03-28T04:26:41.861Z,77.08
2018-03-28T04:29:10.181Z,76.98
2018-03-28T04:31:38.531Z,77.26
2018-03-28T04:34:06.846Z,77.16
2018-03-28T04:36:35.194Z,76.98
2018-03-28T04:39:03.510Z,77.09
2018-03-28T04:41:31.853Z,77.05
2018-03-28T04:44:00.174Z,76.98
2018-03-28T04:46:28.518Z,77.22
2018-03-28T04:48:56.839Z,77.02
2018-03-28T04:51:25.173Z,77.10
2018-03-28T04:53:53.490Z,77.17
2018-03-28T04:56:21.829Z,77.36
2018-03-28T04:58:50.149Z,77.59
2018-03-28T05:01:18.493Z,77.57
2018-03-28T05:03:46.810Z,77.76
2018-03-28T05:06:15.150Z,77.90
2018-03-28T05:08:43.472Z,77.71
2018-03-28T05:11:11.813Z,77.41
2018-03-28T05:13:40.134Z,77.28
2018-03-28T05:16:08.473Z,77.20
2018-03-28T05:18:36.814Z,77.28
2018-03-28T05:21:05.133Z,77.21
2018-03-28T05:23:33.491Z,77.44
2018-03-28T05:26:02.106Z,77.63
2018-03-28T05:28:31.622Z,77.48
2018-03-28T05:31:00.007Z,77.86
2018-03-28T05:33:28.350Z,77.66
2018-03-28T05:35:56.677Z,78.28
2018-03-28T05:38:25.019Z,78.73
2018-03-28T05:40:53.339Z,78.97
2018-03-28T05:43:21.696Z,78.89
2018-03-28T05:45:50.010Z,78.82
2018-03-28T05:48:18.354Z,78.45
2018-03-28T05:50:46.680Z,78.97
2018-03-28T05:53:15.053Z,79.00
2018-03-28T05:55:43.600Z,78.93
2018-03-28T05:58:12.023Z,79.37
2018-03-28T06:00:40.350Z,79.69
2018-03-28T06:03:08.694Z,80.03
2018-03-28T06:05:37.022Z,79.83
2018-03-28T06:08:05.914Z,80.01
2018-03-28T06:10:34.254Z,79.25
2018-03-28T06:13:02.665Z,79.04
2018-03-28T06:15:30.930Z,79.73
2018-03-28T06:17:59.278Z,79.72
2018-03-28T06:20:27.674Z,80.09
2018-03-28T06:22:56.014Z,80.59
2018-03-28T06:25:24.390Z,80.33
2018-03-28T06:27:52.735Z,80.17
2018-03-28T06:30:21.449Z,79.86
2018-03-28T06:32:49.870Z,79.54
2018-03-28T06:35:18.627Z,79.33
2018-03-28T06:37:47.015Z,79.53
2018-03-28T06:40:16.198Z,79.66
2018-03-28T06:42:44.542Z,79.64
2018-03-28T06:45:12.866Z,79.39
2018-03-28T06:47:41.214Z,78.87
2018-03-28T06:50:09.546Z,78.86
2018-03-28T06:52:37.893Z,78.99
2018-03-28T06:55:06.224Z,78.95
2018-03-28T06:57:34.559Z,79.74
2018-03-28T07:00:02.886Z,79.67
2018-03-28T07:02:31.245Z,79.63
2018-03-28T07:04:59.570Z,79.56
2018-03-28T07:07:28.086Z,79.74
2018-03-28T07:09:56.451Z,79.58
2018-03-28T07:12:25.152Z,79.76
2018-03-28T07:14:53.473Z,80.30
2018-03-28T07:17:21.814Z,80.17
2018-03-28T07:19:50.138Z,79.86
2018-03-28T07:22:18.462Z,79.61
2018-03-28T07:24:46.806Z,79.91
2018-03-28T07:27:15.129Z,79.79
2018-03-28T07:29:43.474Z,79.66
2018-03-28T07:32:11.793Z,79.77
2018-03-28T07:34:40.134Z,79.65
2018-03-28T07:37:08.455Z,79.92
2018-03-28T07:39:36.802Z,79.90
2018-03-28T07:42:05.125Z,79.90
2018-03-28T07:44:33.463Z,80.06
2018-03-28T07:47:01.782Z,79.99
2018-03-28T07:49:30.126Z,79.75
2018-03-28T07:51:58.449Z,79.75
2018-03-28T07:54:26.791Z,79.85
2018-03-28T07:56:55.116Z,79.91
2018-03-28T07:59:23.463Z,80.09
2018-03-28T08:01:51.786Z,79.79
2018-03-28T08:04:20.122Z,79.32
2018-03-28T08:06:48.446Z,79.73
2018-03-28T08:09:16.790Z,79.77
2018-03-28T08:11:45.114Z,79.65
2018-03-28T08:14:13.457Z,79.33
2018-03-28T08:16:41.785Z,79.21
2018-03-28T08:19:10.172Z,79.20
2018-03-28T08:21:38.457Z,79.00
2018-03-28T08:24:06.806Z,79.17
2018-03-28T08:26:35.126Z,79.16
2018-03-28T08:29:03.467Z,79.23
2018-03-28T08:31:31.790Z,79.03
2018-03-28T08:34:00.134Z,78.99
2018-03-28T08:36:28.456Z,78.97
2018-03-28T08:38:56.806Z,78.64
2018-03-28T08:41:25.135Z,78.93
2018-03-28T08:43:54.290Z,78.95
2018-03-28T08:46:23.591Z,78.92
2018-03-28T08:48:51.938Z,78.96
2018-03-28T08:51:20.259Z,79.06
2018-03-28T08:53:48.602Z,78.98
2018-03-28T08:56:17.957Z,79.28
2018-03-28T08:58:46.303Z,79.56
2018-03-28T09:01:14.626Z,79.65
2018-03-28T09:03:42.973Z,79.80
2018-03-28T09:06:11.366Z,80.00
2018-03-28T09:08:39.707Z,80.02
2018-03-28T09:11:08.026Z,80.50
2018-03-28T09:13:36.370Z,80.44
2018-03-28T09:16:04.694Z,80.70
2018-03-28T09:18:33.055Z,80.42
2018-03-28T09:21:01.377Z,80.49
2018-03-28T09:23:29.749Z,80.71
2018-03-28T09:25:58.118Z,80.68
2018-03-28T09:28:26.442Z,80.69
2018-03-28T09:30:54.785Z,80.96
2018-03-28T09:33:23.111Z,81.15
2018-03-28T09:35:51.640Z,80.99
2018-03-28T09:38:19.958Z,80.85
2018-03-28T09:40:48.327Z,80.66
2018-03-28T09:43:17.179Z,80.84
2018-03-28T09:45:45.534Z,80.64
2018-03-28T09:48:13.934Z,80.69
2018-03-28T09:50:42.291Z,80.52
2018-03-28T09:53:10.622Z,80.45
2018-03-28T09:55:39.141Z,80.40
2018-03-28T09:58:07.625Z,80.54
2018-03-28T10:00:35.982Z,80.90
2018-03-28T10:03:09.970Z,81.11
2018-03-28T10:05:39.157Z,80.86
2018-03-28T10:08:08.318Z,80.60
2018-03-28T10:10:36.685Z,81.16
2018-03-28T10:13:05.019Z,81.74
2018-03-28T10:15:33.366Z,81.40
2018-03-28T10:18:01.768Z,81.41
2018-03-28T10:20:30.051Z,81.33
2018-03-28T10:22:58.382Z,81.03
2018-03-28T10:25:26.722Z,81.07
2018-03-28T10:27:55.059Z,80.63
2018-03-28T10:30:23.414Z,80.27
2018-03-28T10:32:51.762Z,80.21
2018-03-28T10:35:20.094Z,79.82
2018-03-28T10:37:48.425Z,79.42
2018-03-28T10:40:16.783Z,79.59
2018-03-28T10:42:45.121Z,79.41
2018-03-28T10:45:13.474Z,77.51
2018-03-28T10:47:41.802Z,77.73
2018-03-28T10:50:10.145Z,77.42
2018-03-28T10:52:38.482Z,75.57
2018-03-28T10:55:06.836Z,75.19
2018-03-28T10:57:35.170Z,75.20
2018-03-28T11:00:03.513Z,76.16
2018-03-28T11:02:31.847Z,77.32
2018-03-28T11:05:00.202Z,78.01
2018-03-28T11:07:28.530Z,78.37
2018-03-28T11:09:56.878Z,78.47
2018-03-28T11:12:25.215Z,78.33
2018-03-28T11:14:53.570Z,78.40
2018-03-28T11:17:21.908Z,78.94
2018-03-28T11:19:50.263Z,78.99
2018-03-28T11:22:18.594Z,79.40
2018-03-28T11:24:46.938Z,78.90
2018-03-28T11:27:15.275Z,78.79
2018-03-28T11:29:43.626Z,79.14
2018-03-28T11:32:11.949Z,78.66
2018-03-28T11:34:40.288Z,78.19
2018-03-28T11:37:08.638Z,78.19
2018-03-28T11:39:36.971Z,76.80
2018-03-28T11:42:05.317Z,76.96
2018-03-28T11:44:33.647Z,76.78
2018-03-28T11:47:01.995Z,76.91
2018-03-28T11:49:30.325Z,76.43
2018-03-28T11:51:58.695Z,76.06
2018-03-28T11:54:27.021Z,75.87
2018-03-28T11:56:55.376Z,75.85
2018-03-28T11:59:23.707Z,75.32
2018-03-28T12:01:52.051Z,74.99
2018-03-28T12:04:20.641Z,75.05
2018-03-28T12:06:48.989Z,74.84
2018-03-28T12:09:17.318Z,74.64
2018-03-28T12:11:45.670Z,73.14
2018-03-28T12:14:14.041Z,73.65
2018-03-28T12:16:42.369Z,73.92
2018-03-28T12:19:10.701Z,73.17
2018-03-28T12:21:39.055Z,72.73
2018-03-28T12:24:07.383Z,72.04
2018-03-28T12:26:35.734Z,71.77
2018-03-28T12:29:04.081Z,72.04
2018-03-28T12:31:32.418Z,72.14
2018-03-28T12:34:00.747Z,71.96
2018-03-28T12:36:29.095Z,71.85
2018-03-28T12:38:57.425Z,71.41
2018-03-28T12:41:25.774Z,71.06
2018-03-28T12:43:54.102Z,71.44
2018-03-28T12:46:22.450Z,71.62
2018-03-28T12:48:50.778Z,71.05
2018-03-28T12:51:19.130Z,70.87
2018-03-28T12:53:47.470Z,70.81
2018-03-28T12:56:15.837Z,70.85
2018-03-28T12:58:44.173Z,70.17
2018-03-28T13:01:12.578Z,69.41
2018-03-28T13:03:40.898Z,68.94
2018-03-28T13:06:09.246Z,69.15
2018-03-28T13:08:37.582Z,69.09
2018-03-28T13:11:05.936Z,68.50
2018-03-28T13:13:34.258Z,68.51
2018-03-28T13:16:02.613Z,68.35
2018-03-28T13:18:30.943Z,67.95
2018-03-28T13:20:59.304Z,67.51
2018-03-28T13:23:27.642Z,67.59
2018-03-28T13:25:55.998Z,67.47
2018-03-28T13:28:24.330Z,66.93
2018-03-28T13:30:52.682Z,66.49
2018-03-28T13:33:21.012Z,66.61
2018-03-28T13:35:49.339Z,67.33
2018-03-28T13:38:17.687Z,67.51
2018-03-28T13:40:46.507Z,67.01
2018-03-28T13:43:14.854Z,67.10
2018-03-28T13:45:43.192Z,66.07
2018-03-28T13:48:11.542Z,68.13
2018-03-28T13:50:39.886Z,69.97
2018-03-28T13:53:08.230Z,70.97
2018-03-28T13:55:36.866Z,71.91
2018-03-28T13:58:05.218Z,72.25
2018-03-28T14:00:33.548Z,72.60
2018-03-28T14:03:01.900Z,73.10
2018-03-28T14:05:30.230Z,74.60
2018-03-28T14:07:58.576Z,74.77
2018-03-28T14:10:26.911Z,75.04
2018-03-28T14:12:55.262Z,75.42
2018-03-28T14:15:23.589Z,75.63
2018-03-28T14:17:51.933Z,75.73
2018-03-28T14:20:20.267Z,75.83
2018-03-28T14:22:48.618Z,76.25
2018-03-28T14:25:16.961Z,76.26
2018-03-28T14:27:45.298Z,76.04
2018-03-28T14:30:13.637Z,76.13
2018-03-28T14:32:41.982Z,76.09
2018-03-28T14:35:10.310Z,74.69
2018-03-28T14:37:38.687Z,73.46
2018-03-28T14:40:07.010Z,73.84
2018-03-28T14:42:35.937Z,73.66
2018-03-28T14:45:04.249Z,73.81
2018-03-28T14:47:32.626Z,74.11
2018-03-28T14:50:01.130Z,75.34
2018-03-28T14:52:29.689Z,74.76
2018-03-28T14:54:58.069Z,74.65
2018-03-28T14:57:26.412Z,75.30
2018-03-28T14:59:54.837Z,74.62
2018-03-28T15:02:23.211Z,74.46
2018-03-28T15:04:51.563Z,74.16
2018-03-28T15:07:19.982Z,74.25
2018-03-28T15:09:48.351Z,74.71
2018-03-28T15:12:16.745Z,75.05
2018-03-28T15:14:45.081Z,75.12
2018-03-28T15:17:13.744Z,74.90
2018-03-28T15:19:42.170Z,75.26
2018-03-28T15:22:10.617Z,75.65
2018-03-28T15:24:38.989Z,73.53
2018-03-28T15:27:08.349Z,74.16
2018-03-28T15:29:36.710Z,74.93
2018-03-28T15:32:05.086Z,74.72
2018-03-28T15:34:33.542Z,75.33
2018-03-28T15:37:01.943Z,75.62
2018-03-28T15:39:30.397Z,75.93
2018-03-28T15:41:58.704Z,76.26
2018-03-28T15:44:27.046Z,76.41
2018-03-28T15:46:55.503Z,76.50
2018-03-28T15:49:23.938Z,76.76
2018-03-28T15:51:52.288Z,76.58
2018-03-28T15:54:20.695Z,76.80
2018-03-28T15:56:49.962Z,76.94
2018-03-28T15:59:18.927Z,76.80
2018-03-28T16:01:47.600Z,75.94
2018-03-28T16:04:16.714Z,75.82
2018-03-28T16:06:45.443Z,75.71
2018-03-28T16:09:14.678Z,75.82
2018-03-28T16:11:43.434Z,75.88
2018-03-28T16:14:13.334Z,75.14
2018-03-28T16:16:41.974Z,75.81
2018-03-28T16:19:10.714Z,76.78
2018-03-28T16:21:39.521Z,77.41
2018-03-28T16:24:08.363Z,76.94
2018-03-28T16:26:37.022Z,76.89
2018-03-28T16:29:05.731Z,77.20
2018-03-28T16:31:35.238Z,77.65
2018-03-28T16:34:03.922Z,77.96
2018-03-28T16:36:33.148Z,78.29
2018-03-28T16:39:01.816Z,78.30
2018-03-28T16:41:30.546Z,78.58
2018-03-28T16:43:59.207Z,79.27
2018-03-28T16:46:28.366Z,79.35
2018-03-28T16:48:57.659Z,78.98
2018-03-28T16:51:26.295Z,79.46
2018-03-28T16:53:55.093Z,79.66
2018-03-28T16:56:23.777Z,80.08
2018-03-28T16:58:53.423Z,80.21
2018-03-28T17:01:22.135Z,80.67
2018-03-28T17:03:50.822Z,80.86
2018-03-28T17:06:19.494Z,81.01
2018-03-28T17:08:47.895Z,80.96
2018-03-28T17:11:16.234Z,81.14
2018-03-28T17:13:44.566Z,81.65
2018-03-28T17:16:12.926Z,81.94
2018-03-28T17:18:41.247Z,82.31
2018-03-28T17:21:09.594Z,81.97
2018-03-28T17:23:37.918Z,82.65
2018-03-28T17:26:06.266Z,82.80
2018-03-28T17:28:34.603Z,82.47
2018-03-28T17:31:02.958Z,82.55
2018-03-28T17:33:31.286Z,82.49
2018-03-28T17:35:59.634Z,82.77
2018-03-28T17:38:27.977Z,83.18
2018-03-28T17:40:56.311Z,83.67
2018-03-28T17:43:24.649Z,83.73
2018-03-28T17:45:52.970Z,83.87
2018-03-28T17:48:21.314Z,83.99
2018-03-28T17:50:49.641Z,83.79
2018-03-28T17:53:17.991Z,83.93
2018-03-28T17:55:46.310Z,83.80
2018-03-28T17:58:14.654Z,83.70
2018-03-28T18:00:43.206Z,83.96
2018-03-28T18:03:11.554Z,83.78
2018-03-28T18:05:39.884Z,83.63
2018-03-28T18:08:08.226Z,83.99
2018-03-28T18:10:36.549Z,83.90
2018-03-28T18:13:04.898Z,83.36
2018-03-28T18:15:33.222Z,83.55
2018-03-28T18:18:01.568Z,83.57
2018-03-28T18:20:30.818Z,83.90
2018-03-28T18:22:59.167Z,84.24
2018-03-28T18:25:27.490Z,86.45
2018-03-28T18:27:55.833Z,86.69
2018-03-28T18:30:24.165Z,80.17
2018-03-28T18:32:52.518Z,80.00
2018-03-28T18:35:20.852Z,80.98
2018-03-28T18:37:49.199Z,81.91
2018-03-28T18:40:17.514Z,82.58
2018-03-28T18:42:45.874Z,82.70
2018-03-28T18:45:14.191Z,83.20
2018-03-28T18:47:42.517Z,83.50
2018-03-28T18:50:10.858Z,83.70
2018-03-28T18:52:39.187Z,83.46
2018-03-28T18:55:07.526Z,83.55
2018-03-28T18:57:35.854Z,83.66
2018-03-28T19:00:04.199Z,83.59
2018-03-28T19:02:32.528Z,83.78
2018-03-28T19:05:01.681Z,84.60
2018-03-28T19:07:30.001Z,84.41
2018-03-28T19:09:58.350Z,83.41
2018-03-28T19:12:26.681Z,83.78
2018-03-28T19:14:55.044Z,83.08
2018-03-28T19:17:23.349Z,83.23
2018-03-28T19:19:51.696Z,83.10
2018-03-28T19:22:20.021Z,82.99
2018-03-28T19:24:48.366Z,83.81
2018-03-28T19:27:16.686Z,83.42
2018-03-28T19:29:45.034Z,83.48
2018-03-28T19:32:13.354Z,83.70
2018-03-28T19:34:41.714Z,83.19
2018-03-28T19:37:10.037Z,83.19
2018-03-28T19:39:38.381Z,83.44
2018-03-28T19:42:06.706Z,83.40
2018-03-28T19:44:35.058Z,83.41
2018-03-28T19:47:03.378Z,83.22
2018-03-28T19:49:31.722Z,83.25
2018-03-28T19:52:00.042Z,83.32
2018-03-28T19:54:28.381Z,83.34
2018-03-28T19:56:56.705Z,83.50
2018-03-28T19:59:25.051Z,83.86
2018-03-28T20:01:53.398Z,84.01
2018-03-28T20:06:56.378Z,84.26
2018-03-28T20:09:24.719Z,84.24
2018-03-28T20:11:53.043Z,84.69
2018-03-28T20:14:21.389Z,84.29
2018-03-28T20:16:49.714Z,84.25
2018-03-28T20:19:18.062Z,84.29
2018-03-28T20:21:46.377Z,84.22
2018-03-28T20:24:14.719Z,84.21
2018-03-28T20:26:43.041Z,84.32
2018-03-28T20:29:11.385Z,83.86
2018-03-28T20:31:39.714Z,83.75
2018-03-28T20:34:08.058Z,84.11
2018-03-28T20:36:36.386Z,83.88
2018-03-28T20:39:04.730Z,83.82
2018-03-28T20:41:33.050Z,83.98
2018-03-28T20:44:01.647Z,83.66
2018-03-28T20:46:30.097Z,83.73
2018-03-28T20:48:58.446Z,83.17
2018-03-28T20:51:26.773Z,83.83
2018-03-28T20:53:55.790Z,83.67
2018-03-28T20:56:24.270Z,83.38
2018-03-28T20:58:52.834Z,83.41
2018-03-28T21:01:21.408Z,83.87
2018-03-28T21:03:49.852Z,83.61
2018-03-28T21:06:18.411Z,83.90
2018-03-28T21:08:46.730Z,84.43
2018-03-28T21:11:15.098Z,84.90
2018-03-28T21:13:43.445Z,84.34
2018-03-28T21:16:12.374Z,84.29
2018-03-28T21:18:40.694Z,84.35
2018-03-28T21:21:09.037Z,84.34
2018-03-28T21:23:37.363Z,84.33
2018-03-28T21:26:05.710Z,84.09
2018-03-28T21:28:34.073Z,84.83
2018-03-28T21:31:02.394Z,85.38
2018-03-28T21:33:30.715Z,85.82
2018-03-28T21:35:59.062Z,85.73
2018-03-28T21:38:27.382Z,85.81
2018-03-28T21:40:55.739Z,85.48
2018-03-28T21:43:24.055Z,85.53
2018-03-28T21:45:52.402Z,85.64
2018-03-28T21:48:20.732Z,85.33
2018-03-28T21:50:49.082Z,85.29
2018-03-28T21:53:17.410Z,85.04
2018-03-28T21:55:45.749Z,84.79
2018-03-28T21:58:14.072Z,84.58
2018-03-28T22:00:42.423Z,84.54
2018-03-28T22:03:10.762Z,84.20
2018-03-28T22:05:39.242Z,84.12
2018-03-28T22:08:07.550Z,84.48
2018-03-28T22:10:35.901Z,84.55
2018-03-28T22:13:04.221Z,84.65
2018-03-28T22:15:32.562Z,84.11
2018-03-28T22:18:00.887Z,84.07
2018-03-28T22:20:29.232Z,83.91
2018-03-28T22:22:57.553Z,83.91
2018-03-28T22:25:25.902Z,83.97
2018-03-28T22:27:54.226Z,83.96
2018-03-28T22:30:22.566Z,84.16
2018-03-28T22:32:50.890Z,84.21
2018-03-28T22:35:19.431Z,83.66
2018-03-28T22:37:47.742Z,83.97
2018-03-28T22:40:16.084Z,84.25
2018-03-28T22:42:44.402Z,84.83
2018-03-28T22:45:12.760Z,84.38
2018-03-28T22:47:41.087Z,84.32
2018-03-28T22:50:09.408Z,84.22
2018-03-28T22:52:37.763Z,84.68
2018-03-28T22:55:06.938Z,84.40
2018-03-28T22:57:35.286Z,84.36
2018-03-28T23:00:03.615Z,83.93
2018-03-28T23:02:31.681Z,83.83
2018-03-28T23:05:00.005Z,83.88
2018-03-28T23:07:28.350Z,84.25
2018-03-28T23:09:56.686Z,84.04
2018-03-28T23:12:25.034Z,84.15
2018-03-28T23:14:53.749Z,84.21
2018-03-28T23:17:22.091Z,84.31
2018-03-28T23:19:50.407Z,84.47
2018-03-28T23:22:30.506Z,84.11
2018-03-28T23:24:58.826Z,84.26
2018-03-28T23:27:27.166Z,83.83
2018-03-28T23:29:55.486Z,84.12
2018-03-28T23:32:23.822Z,84.31
2018-03-28T23:34:52.159Z,84.11
2018-03-28T23:37:20.504Z,84.15
2018-03-28T23:39:48.836Z,84.33
2018-03-28T23:42:17.202Z,84.13
2018-03-28T23:44:45.496Z,83.60
2018-03-28T23:47:14.782Z,83.37
2018-03-28T23:49:43.096Z,82.29
2018-03-28T23:52:11.422Z,81.95
2018-03-28T23:54:39.730Z,82.40
2018-03-28T23:57:08.062Z,82.72
2018-03-28T23:59:36.370Z,82.86
